createdAt,value
2022-08-21T04:00:30.412Z,0.00
2022-08-21T04:01:30.408Z,0.00
2022-08-21T04:02:30.338Z,0.00
2022-08-21T04:03:30.326Z,0.00
2022-08-21T04:04:30.313Z,0.00
2022-08-21T04:05:30.304Z,0.00
2022-08-21T04:06:34.554Z,0.00
2022-08-21T04:07:31.280Z,0.00
2022-08-21T04:08:30.267Z,0.00
2022-08-21T04:09:30.260Z,0.00
2022-08-21T04:10:30.247Z,0.00
2022-08-21T04:11:35.267Z,0.00
2022-08-21T04:12:30.225Z,0.00
2022-08-21T04:13:30.214Z,0.00
2022-08-21T04:14:30.201Z,0.00
2022-08-21T04:15:30.194Z,0.00
2022-08-21T04:16:30.185Z,0.00
2022-08-21T04:17:30.196Z,0.00
2022-08-21T04:18:30.157Z,0.00
2022-08-21T04:19:30.146Z,0.00
2022-08-21T04:20:30.134Z,0.00
2022-08-21T04:21:30.125Z,0.00
2022-08-21T04:22:35.184Z,0.00
2022-08-21T04:23:30.102Z,0.00
2022-08-21T04:24:30.101Z,0.00
2022-08-21T04:25:30.082Z,0.00
2022-08-21T04:26:30.074Z,0.00
2022-08-21T04:27:30.068Z,0.00
2022-08-21T04:28:30.441Z,0.00
2022-08-21T04:29:30.035Z,0.00
2022-08-21T04:30:30.025Z,0.00
2022-08-21T04:31:30.012Z,0.00
2022-08-21T04:32:30.017Z,0.00
2022-08-21T04:33:35.013Z,0.00
2022-08-21T04:34:29.977Z,0.00
2022-08-21T04:35:29.969Z,0.00
2022-08-21T04:36:29.958Z,0.00
2022-08-21T04:37:29.958Z,0.00
2022-08-21T04:38:36.525Z,0.00
2022-08-21T04:39:30.923Z,5.62
2022-08-21T04:40:30.008Z,5.62
2022-08-21T04:41:29.902Z,5.62
2022-08-21T04:42:29.902Z,5.62
2022-08-21T04:43:29.879Z,5.62
2022-08-21T04:44:34.890Z,5.62
2022-08-21T04:45:29.857Z,5.62
2022-08-21T04:46:29.844Z,5.62
2022-08-21T04:47:44.560Z,5.62
2022-08-21T04:48:30.823Z,5.62
2022-08-21T04:49:29.812Z,5.62
2022-08-21T04:50:29.800Z,5.62
2022-08-21T04:51:30.908Z,5.62
2022-08-21T04:52:29.796Z,11.25
2022-08-21T04:53:29.769Z,11.25
2022-08-21T04:54:29.754Z,11.25
2022-08-21T04:55:34.773Z,11.25
2022-08-21T04:56:29.732Z,11.25
2022-08-21T04:57:34.210Z,11.25
2022-08-21T04:58:30.709Z,11.25
2022-08-21T04:59:29.700Z,11.25
2022-08-21T05:00:29.687Z,11.25
2022-08-21T05:01:29.742Z,11.25
2022-08-21T05:02:29.680Z,11.25
2022-08-21T05:03:29.653Z,16.88
2022-08-21T05:04:29.648Z,16.88
2022-08-21T05:05:29.634Z,16.88
2022-08-21T05:06:34.644Z,16.88
2022-08-21T05:07:42.786Z,16.88
2022-08-21T05:08:30.599Z,16.88
2022-08-21T05:09:29.593Z,16.88
2022-08-21T05:10:29.583Z,16.88
2022-08-21T05:11:29.568Z,16.88
2022-08-21T05:12:29.567Z,16.88
2022-08-21T05:13:29.572Z,16.88
2022-08-21T05:14:29.537Z,22.50
2022-08-21T05:15:29.519Z,22.50
2022-08-21T05:16:36.708Z,22.50
2022-08-21T05:17:35.529Z,22.50
2022-08-21T05:18:29.495Z,22.50
2022-08-21T05:19:29.479Z,22.50
2022-08-21T05:20:29.468Z,22.50
2022-08-21T05:21:29.453Z,22.50
2022-08-21T05:22:29.462Z,22.50
2022-08-21T05:23:29.441Z,22.50
2022-08-21T05:24:29.421Z,22.50
2022-08-21T05:25:29.408Z,28.12
2022-08-21T05:26:29.408Z,28.12
2022-08-21T05:27:29.403Z,28.12
2022-08-21T05:28:34.397Z,28.12
2022-08-21T05:29:29.366Z,28.12
2022-08-21T05:30:29.355Z,28.12
2022-08-21T05:31:29.342Z,28.12
2022-08-21T05:32:29.334Z,28.12
2022-08-21T05:33:29.328Z,28.12
2022-08-21T05:34:29.316Z,28.12
2022-08-21T05:35:29.300Z,28.12
2022-08-21T05:36:29.286Z,33.75
2022-08-21T05:37:29.275Z,33.75
2022-08-21T05:38:29.288Z,33.75
2022-08-21T05:40:05.217Z,33.75
2022-08-21T05:40:30.307Z,33.75
2022-08-21T05:41:29.234Z,33.75
2022-08-21T05:42:29.219Z,33.75
2022-08-21T05:43:29.220Z,33.75
2022-08-21T05:44:29.197Z,39.38
2022-08-21T05:45:43.452Z,39.38
2022-08-21T05:46:30.174Z,45.00
2022-08-21T05:47:29.177Z,50.62
2022-08-21T05:48:29.165Z,56.25
2022-08-21T05:49:29.144Z,50.62
2022-08-21T05:50:34.152Z,39.38
2022-08-21T05:51:29.117Z,39.38
2022-08-21T05:52:29.108Z,39.38
2022-08-21T05:53:29.108Z,39.38
2022-08-21T05:54:29.091Z,39.38
2022-08-21T05:55:29.074Z,39.38
2022-08-21T05:56:30.062Z,45.00
2022-08-21T05:57:29.055Z,45.00
2022-08-21T05:58:29.053Z,45.00
2022-08-21T05:59:29.028Z,45.00
2022-08-21T06:00:29.110Z,50.62
2022-08-21T06:01:34.104Z,50.62
2022-08-21T06:02:28.997Z,50.62
2022-08-21T06:03:28.996Z,56.25
2022-08-21T06:04:28.975Z,56.25
2022-08-21T06:05:36.580Z,56.25
2022-08-21T06:06:29.958Z,56.25
2022-08-21T06:07:28.940Z,56.25
2022-08-21T06:08:28.941Z,56.25
2022-08-21T06:09:28.918Z,56.25
2022-08-21T06:10:28.963Z,56.25
2022-08-21T06:11:29.243Z,50.62
2022-08-21T06:12:33.905Z,50.62
2022-08-21T06:13:28.943Z,50.62
2022-08-21T06:14:28.870Z,50.62
2022-08-21T06:15:28.849Z,50.62
2022-08-21T06:16:28.844Z,50.62
2022-08-21T06:17:28.828Z,50.62
2022-08-21T06:18:28.831Z,50.62
2022-08-21T06:19:28.806Z,56.25
2022-08-21T06:20:28.799Z,61.88
2022-08-21T06:21:28.783Z,61.88
2022-08-21T06:22:28.774Z,61.88
2022-08-21T06:23:33.801Z,73.12
2022-08-21T06:24:28.752Z,101.25
2022-08-21T06:25:28.744Z,135.00
2022-08-21T06:26:28.735Z,163.12
2022-08-21T06:27:28.718Z,174.38
2022-08-21T06:28:28.726Z,180.00
2022-08-21T06:29:28.702Z,168.75
2022-08-21T06:30:28.695Z,129.38
2022-08-21T06:31:28.672Z,95.62
2022-08-21T06:32:28.664Z,84.38
2022-08-21T06:33:32.510Z,84.38
2022-08-21T06:34:33.662Z,90.00
2022-08-21T06:35:28.628Z,84.38
2022-08-21T06:36:28.620Z,61.88
2022-08-21T06:37:28.605Z,61.88
2022-08-21T06:38:28.614Z,73.12
2022-08-21T06:39:32.301Z,73.12
2022-08-21T06:40:28.602Z,67.50
2022-08-21T06:41:28.563Z,61.88
2022-08-21T06:42:28.553Z,61.88
2022-08-21T06:43:32.794Z,61.88
2022-08-21T06:44:29.554Z,61.88
2022-08-21T06:45:33.538Z,61.88
2022-08-21T06:46:28.509Z,61.88
2022-08-21T06:47:28.497Z,67.50
2022-08-21T06:48:28.486Z,67.50
2022-08-21T06:49:28.485Z,67.50
2022-08-21T06:50:28.464Z,67.50
2022-08-21T06:51:28.453Z,61.88
2022-08-21T06:52:28.441Z,67.50
2022-08-21T06:53:28.428Z,67.50
2022-08-21T06:54:28.429Z,73.12
2022-08-21T06:55:29.261Z,90.00
2022-08-21T06:56:33.418Z,135.00
2022-08-21T06:57:28.385Z,112.50
2022-08-21T06:58:28.389Z,78.75
2022-08-21T06:59:28.362Z,78.75
2022-08-21T07:00:28.360Z,84.38
2022-08-21T07:01:28.438Z,129.38
2022-08-21T07:02:28.338Z,180.00
2022-08-21T07:03:28.336Z,146.25
2022-08-21T07:04:28.310Z,90.00
2022-08-21T07:05:28.295Z,67.50
2022-08-21T07:06:28.289Z,61.88
2022-08-21T07:07:33.294Z,61.88
2022-08-21T07:08:28.269Z,61.88
2022-08-21T07:09:28.263Z,61.88
2022-08-21T07:10:28.243Z,61.88
2022-08-21T07:11:28.230Z,67.50
2022-08-21T07:12:28.219Z,67.50
2022-08-21T07:13:28.205Z,67.50
2022-08-21T07:14:28.216Z,73.12
2022-08-21T07:15:28.189Z,78.75
2022-08-21T07:16:28.174Z,78.75
2022-08-21T07:17:28.163Z,73.12
2022-08-21T07:18:33.182Z,67.50
2022-08-21T07:19:28.150Z,67.50
2022-08-21T07:20:28.129Z,67.50
2022-08-21T07:21:28.116Z,67.50
2022-08-21T07:22:28.109Z,67.50
2022-08-21T07:23:28.103Z,67.50
2022-08-21T07:24:28.101Z,67.50
2022-08-21T07:25:28.074Z,67.50
2022-08-21T07:26:28.063Z,67.50
2022-08-21T07:27:28.055Z,67.50
2022-08-21T07:28:28.276Z,67.50
2022-08-21T07:29:33.076Z,67.50
2022-08-21T07:30:28.018Z,67.50
2022-08-21T07:31:28.009Z,67.50
2022-08-21T07:32:27.996Z,67.50
2022-08-21T07:33:27.982Z,73.12
2022-08-21T07:34:27.983Z,73.12
2022-08-21T07:35:27.960Z,73.12
2022-08-21T07:36:27.951Z,73.12
2022-08-21T07:37:27.939Z,73.12
2022-08-21T07:38:27.930Z,73.12
2022-08-21T07:39:27.932Z,73.12
2022-08-21T07:40:32.929Z,73.12
2022-08-21T07:41:27.895Z,73.12
2022-08-21T07:42:27.885Z,73.12
2022-08-21T07:43:27.871Z,73.12
2022-08-21T07:44:27.873Z,73.12
2022-08-21T07:45:27.851Z,73.12
2022-08-21T07:46:27.851Z,73.12
2022-08-21T07:47:41.813Z,73.12
2022-08-21T07:48:28.817Z,73.12
2022-08-21T07:49:27.818Z,73.12
2022-08-21T07:50:27.798Z,73.12
2022-08-21T07:51:32.806Z,73.12
2022-08-21T07:52:27.778Z,78.75
2022-08-21T07:53:27.763Z,78.75
2022-08-21T07:54:33.931Z,78.75
2022-08-21T07:55:28.739Z,78.75
2022-08-21T07:56:27.732Z,78.75
2022-08-21T07:57:27.723Z,78.75
2022-08-21T07:58:27.709Z,78.75
2022-08-21T07:59:27.707Z,78.75
2022-08-21T08:00:27.688Z,84.38
2022-08-21T08:01:27.712Z,84.38
2022-08-21T08:02:32.692Z,90.00
2022-08-21T08:03:28.590Z,90.00
2022-08-21T08:04:27.664Z,106.88
2022-08-21T08:05:27.631Z,151.88
2022-08-21T08:06:27.629Z,157.50
2022-08-21T08:07:27.612Z,118.12
2022-08-21T08:08:27.604Z,90.00
2022-08-21T08:09:27.600Z,84.38
2022-08-21T08:10:27.580Z,84.38
2022-08-21T08:11:27.565Z,84.38
2022-08-21T08:12:27.557Z,90.00
2022-08-21T08:13:32.598Z,95.62
2022-08-21T08:14:31.605Z,95.62
2022-08-21T08:15:27.535Z,95.62
2022-08-21T08:16:27.516Z,95.62
2022-08-21T08:17:27.500Z,106.88
2022-08-21T08:18:27.492Z,129.38
2022-08-21T08:19:27.488Z,118.12
2022-08-21T08:20:27.470Z,101.25
2022-08-21T08:21:27.457Z,101.25
2022-08-21T08:22:27.446Z,95.62
2022-08-21T08:23:27.434Z,90.00
2022-08-21T08:24:32.457Z,90.00
2022-08-21T08:25:27.412Z,90.00
2022-08-21T08:26:27.402Z,90.00
2022-08-21T08:27:27.389Z,90.00
2022-08-21T08:28:27.382Z,95.62
2022-08-21T08:29:27.380Z,95.62
2022-08-21T08:30:31.262Z,95.62
2022-08-21T08:31:28.346Z,95.62
2022-08-21T08:32:27.337Z,95.62
2022-08-21T08:33:27.332Z,95.62
2022-08-21T08:34:27.328Z,95.62
2022-08-21T08:35:32.341Z,95.62
2022-08-21T08:36:27.296Z,95.62
2022-08-21T08:37:30.480Z,95.62
2022-08-21T08:38:28.270Z,101.25
2022-08-21T08:39:29.604Z,140.62
2022-08-21T08:40:27.274Z,129.38
2022-08-21T08:41:30.843Z,106.88
2022-08-21T08:42:32.730Z,101.25
2022-08-21T08:43:28.211Z,101.25
2022-08-21T08:44:27.204Z,112.50
2022-08-21T08:45:27.223Z,106.88
2022-08-21T08:46:32.206Z,101.25
2022-08-21T08:47:27.173Z,106.88
2022-08-21T08:48:27.158Z,106.88
2022-08-21T08:49:27.171Z,101.25
2022-08-21T08:50:27.135Z,112.50
2022-08-21T08:51:27.125Z,106.88
2022-08-21T08:52:27.113Z,101.25
2022-08-21T08:53:27.103Z,101.25
2022-08-21T08:54:27.099Z,106.88
2022-08-21T08:55:27.434Z,118.12
2022-08-21T08:56:27.071Z,219.38
2022-08-21T08:57:32.079Z,247.50
2022-08-21T08:58:27.045Z,146.25
2022-08-21T08:59:27.050Z,101.25
2022-08-21T09:00:27.026Z,101.25
2022-08-21T09:01:27.025Z,101.25
2022-08-21T09:02:27.150Z,112.50
2022-08-21T09:03:26.994Z,146.25
2022-08-21T09:04:26.992Z,225.00
2022-08-21T09:05:26.978Z,191.25
2022-08-21T09:06:26.957Z,360.00
2022-08-21T09:07:26.946Z,225.00
2022-08-21T09:08:31.958Z,112.50
2022-08-21T09:09:26.931Z,112.50
2022-08-21T09:10:26.912Z,106.88
2022-08-21T09:11:26.905Z,106.88
2022-08-21T09:12:26.894Z,106.88
2022-08-21T09:13:26.880Z,101.25
2022-08-21T09:14:27.303Z,101.25
2022-08-21T09:15:26.857Z,106.88
2022-08-21T09:16:26.849Z,106.88
2022-08-21T09:17:26.847Z,106.88
2022-08-21T09:18:26.824Z,106.88
2022-08-21T09:19:31.847Z,191.25
2022-08-21T09:20:26.801Z,118.12
2022-08-21T09:21:26.796Z,118.12
2022-08-21T09:22:26.779Z,123.75
2022-08-21T09:23:26.780Z,129.38
2022-08-21T09:24:26.768Z,135.00
2022-08-21T09:25:26.753Z,135.00
2022-08-21T09:26:26.736Z,129.38
2022-08-21T09:27:26.726Z,174.38
2022-08-21T09:28:26.713Z,140.62
2022-08-21T09:29:26.761Z,123.75
2022-08-21T09:30:31.729Z,230.62
2022-08-21T09:31:26.682Z,950.62
2022-08-21T09:32:37.518Z,151.88
2022-08-21T09:33:27.663Z,129.38
2022-08-21T09:34:26.647Z,129.38
2022-08-21T09:35:26.648Z,135.00
2022-08-21T09:36:26.626Z,135.00
2022-08-21T09:37:26.643Z,129.38
2022-08-21T09:38:26.602Z,140.62
2022-08-21T09:39:26.603Z,140.62
2022-08-21T09:40:26.658Z,129.38
2022-08-21T09:41:31.598Z,129.38
2022-08-21T09:42:26.560Z,129.38
2022-08-21T09:43:26.554Z,135.00
2022-08-21T09:44:26.570Z,129.38
2022-08-21T09:45:26.527Z,129.38
2022-08-21T09:46:26.515Z,123.75
2022-08-21T09:47:26.967Z,129.38
2022-08-21T09:48:27.176Z,129.38
2022-08-21T09:49:27.514Z,135.00
2022-08-21T09:50:26.474Z,135.00
2022-08-21T09:51:26.462Z,168.75
2022-08-21T09:52:31.474Z,264.38
2022-08-21T09:53:26.439Z,635.62
2022-08-21T09:54:26.428Z,191.25
2022-08-21T09:55:26.428Z,213.75
2022-08-21T09:56:26.404Z,810.00
2022-08-21T09:57:26.396Z,922.50
2022-08-21T09:58:26.384Z,793.12
2022-08-21T09:59:26.373Z,405.00
2022-08-21T10:00:26.373Z,421.88
2022-08-21T10:01:26.446Z,534.38
2022-08-21T10:02:26.341Z,545.62
2022-08-21T10:03:31.352Z,1102.50
2022-08-21T10:04:26.325Z,247.50
2022-08-21T10:05:26.318Z,208.12
2022-08-21T10:06:26.295Z,180.00
2022-08-21T10:07:26.288Z,163.12
2022-08-21T10:08:26.273Z,140.62
2022-08-21T10:09:26.277Z,135.00
2022-08-21T10:10:26.263Z,151.88
2022-08-21T10:11:26.281Z,140.62
2022-08-21T10:12:26.234Z,129.38
2022-08-21T10:13:26.233Z,129.38
2022-08-21T10:14:31.241Z,129.38
2022-08-21T10:15:26.216Z,129.38
2022-08-21T10:16:26.190Z,129.38
2022-08-21T10:17:26.179Z,135.00
2022-08-21T10:18:26.165Z,129.38
2022-08-21T10:19:26.156Z,135.00
2022-08-21T10:20:26.159Z,140.62
2022-08-21T10:21:26.139Z,135.00
2022-08-21T10:22:26.123Z,157.50
2022-08-21T10:23:26.132Z,151.88
2022-08-21T10:24:30.947Z,140.62
2022-08-21T10:25:32.142Z,140.62
2022-08-21T10:26:26.083Z,163.12
2022-08-21T10:27:26.079Z,151.88
2022-08-21T10:28:26.068Z,140.62
2022-08-21T10:29:26.052Z,140.62
2022-08-21T10:30:26.046Z,146.25
2022-08-21T10:31:26.028Z,146.25
2022-08-21T10:32:26.786Z,146.25
2022-08-21T10:33:26.009Z,146.25
2022-08-21T10:34:25.993Z,157.50
2022-08-21T10:35:25.995Z,163.12
2022-08-21T10:36:30.993Z,168.75
2022-08-21T10:37:25.964Z,146.25
2022-08-21T10:38:48.839Z,146.25
2022-08-21T10:39:35.890Z,151.88
2022-08-21T10:40:27.018Z,168.75
2022-08-21T10:41:25.919Z,258.75
2022-08-21T10:42:28.268Z,225.00
2022-08-21T10:43:25.900Z,191.25
2022-08-21T10:44:25.885Z,191.25
2022-08-21T10:45:25.889Z,185.62
2022-08-21T10:46:25.864Z,360.00
2022-08-21T10:47:30.887Z,618.75
2022-08-21T10:48:25.848Z,736.88
2022-08-21T10:49:25.836Z,883.12
2022-08-21T10:50:25.821Z,472.50
2022-08-21T10:51:29.058Z,500.62
2022-08-21T10:52:25.804Z,450.00
2022-08-21T10:53:25.788Z,894.38
2022-08-21T10:54:25.778Z,1276.88
2022-08-21T10:55:25.765Z,258.75
2022-08-21T10:56:25.763Z,213.75
2022-08-21T10:57:31.912Z,225.00
2022-08-21T10:58:31.751Z,191.25
2022-08-21T10:59:25.722Z,135.00
2022-08-21T11:00:25.871Z,185.62
2022-08-21T11:01:25.709Z,264.38
2022-08-21T11:02:25.688Z,140.62
2022-08-21T11:03:25.676Z,157.50
2022-08-21T11:04:25.670Z,135.00
2022-08-21T11:05:25.655Z,478.12
2022-08-21T11:06:25.670Z,146.25
2022-08-21T11:07:25.635Z,146.25
2022-08-21T11:08:25.619Z,157.50
2022-08-21T11:09:30.633Z,236.25
2022-08-21T11:10:25.724Z,568.12
2022-08-21T11:11:25.599Z,410.62
2022-08-21T11:12:26.574Z,202.50
2022-08-21T11:13:30.617Z,157.50
2022-08-21T11:14:26.578Z,168.75
2022-08-21T11:15:29.557Z,157.50
2022-08-21T11:16:25.542Z,151.88
2022-08-21T11:17:25.523Z,185.62
2022-08-21T11:18:25.510Z,157.50
2022-08-21T11:19:25.505Z,157.50
2022-08-21T11:20:30.525Z,180.00
2022-08-21T11:21:25.490Z,343.12
2022-08-21T11:22:25.464Z,180.00
2022-08-21T11:23:25.458Z,208.12
2022-08-21T11:24:25.475Z,517.50
2022-08-21T11:25:25.434Z,213.75
2022-08-21T11:26:26.429Z,196.88
2022-08-21T11:27:25.411Z,185.62
2022-08-21T11:28:25.402Z,146.25
2022-08-21T11:29:25.396Z,146.25
2022-08-21T11:30:25.391Z,151.88
2022-08-21T11:31:30.399Z,191.25
2022-08-21T11:32:25.357Z,163.12
2022-08-21T11:33:25.353Z,168.75
2022-08-21T11:34:25.336Z,163.12
2022-08-21T11:35:25.338Z,174.38
2022-08-21T11:36:25.328Z,180.00
2022-08-21T11:37:25.300Z,337.50
2022-08-21T11:38:25.291Z,258.75
2022-08-21T11:39:25.279Z,180.00
2022-08-21T11:40:25.337Z,185.62
2022-08-21T11:41:25.284Z,163.12
2022-08-21T11:42:30.266Z,157.50
2022-08-21T11:43:25.253Z,157.50
2022-08-21T11:44:25.227Z,208.12
2022-08-21T11:45:26.181Z,309.38
2022-08-21T11:46:25.210Z,157.50
2022-08-21T11:47:25.190Z,191.25
2022-08-21T11:48:25.179Z,191.25
2022-08-21T11:49:25.168Z,213.75
2022-08-21T11:50:34.225Z,213.75
2022-08-21T11:51:26.158Z,202.50
2022-08-21T11:52:25.132Z,202.50
2022-08-21T11:53:30.149Z,202.50
2022-08-21T11:54:25.111Z,202.50
2022-08-21T11:55:25.108Z,202.50
2022-08-21T11:56:25.099Z,202.50
2022-08-21T11:57:25.086Z,281.25
2022-08-21T11:58:25.066Z,219.38
2022-08-21T11:59:25.058Z,275.62
2022-08-21T12:00:25.051Z,1063.12
2022-08-21T12:01:25.049Z,1586.25
2022-08-21T12:02:25.077Z,1923.75
2022-08-21T12:03:25.012Z,2975.62
2022-08-21T12:04:30.041Z,3431.25
2022-08-21T12:05:24.992Z,3481.88
2022-08-21T12:06:24.979Z,3420.00
2022-08-21T12:07:24.980Z,3279.38
2022-08-21T12:08:24.964Z,3262.50
2022-08-21T12:09:24.970Z,3031.88
2022-08-21T12:10:24.936Z,2818.12
2022-08-21T12:11:24.931Z,3043.12
2022-08-21T12:12:25.934Z,3065.62
2022-08-21T12:13:39.992Z,2874.38
2022-08-21T12:14:25.932Z,2795.62
2022-08-21T12:15:29.946Z,3228.75
2022-08-21T12:16:24.894Z,3127.50
2022-08-21T12:17:24.897Z,3217.50
2022-08-21T12:18:24.852Z,3307.50
2022-08-21T12:19:24.847Z,3155.62
2022-08-21T12:20:24.829Z,3251.25
2022-08-21T12:21:24.833Z,3234.38
2022-08-21T12:22:24.811Z,2986.88
2022-08-21T12:23:24.801Z,3043.12
2022-08-21T12:24:24.789Z,3020.62
2022-08-21T12:25:24.790Z,2964.38
2022-08-21T12:26:24.781Z,2857.50
2022-08-21T12:27:24.766Z,2896.88
2022-08-21T12:28:29.771Z,2964.38
2022-08-21T12:29:24.740Z,2941.88
2022-08-21T12:30:25.798Z,3048.75
2022-08-21T12:31:24.722Z,3178.12
2022-08-21T12:32:24.717Z,3099.38
2022-08-21T12:33:24.701Z,2958.75
2022-08-21T12:34:24.686Z,3048.75
2022-08-21T12:35:25.495Z,3133.12
2022-08-21T12:36:24.667Z,2913.75
2022-08-21T12:37:24.673Z,2964.38
2022-08-21T12:38:24.646Z,3166.88
2022-08-21T12:39:29.659Z,3211.88
2022-08-21T12:40:24.722Z,3082.50
2022-08-21T12:41:24.621Z,2919.38
2022-08-21T12:42:24.618Z,2160.00
2022-08-21T12:43:24.597Z,630.00
2022-08-21T12:44:24.586Z,185.62
2022-08-21T12:45:24.578Z,168.75
2022-08-21T12:46:24.568Z,180.00
2022-08-21T12:47:24.568Z,202.50
2022-08-21T12:48:25.007Z,219.38
2022-08-21T12:49:26.703Z,247.50
2022-08-21T12:50:29.557Z,241.88
2022-08-21T12:51:24.516Z,241.88
2022-08-21T12:52:24.517Z,241.88
2022-08-21T12:53:24.495Z,247.50
2022-08-21T12:54:24.486Z,225.00
2022-08-21T12:55:24.475Z,219.38
2022-08-21T12:56:24.467Z,225.00
2022-08-21T12:57:24.558Z,213.75
2022-08-21T12:58:24.442Z,180.00
2022-08-21T12:59:24.432Z,168.75
2022-08-21T13:00:24.420Z,163.12
2022-08-21T13:01:29.488Z,146.25
2022-08-21T13:02:24.435Z,140.62
2022-08-21T13:03:24.415Z,157.50
2022-08-21T13:04:24.378Z,163.12
2022-08-21T13:05:24.369Z,157.50
2022-08-21T13:06:24.356Z,146.25
2022-08-21T13:07:24.365Z,135.00
2022-08-21T13:08:24.344Z,129.38
2022-08-21T13:09:24.328Z,129.38
2022-08-21T13:10:24.319Z,123.75
2022-08-21T13:11:32.619Z,118.12
2022-08-21T13:12:28.336Z,118.12
2022-08-21T13:13:28.194Z,118.12
2022-08-21T13:14:29.303Z,123.75
2022-08-21T13:15:24.289Z,123.75
2022-08-21T13:16:24.308Z,118.12
2022-08-21T13:17:25.859Z,118.12
2022-08-21T13:18:24.240Z,118.12
2022-08-21T13:19:24.270Z,112.50
2022-08-21T13:20:24.212Z,118.12
2022-08-21T13:21:24.202Z,112.50
2022-08-21T13:22:34.584Z,118.12
2022-08-21T13:23:25.241Z,118.12
2022-08-21T13:24:42.816Z,118.12
2022-08-21T13:25:25.154Z,118.12
2022-08-21T13:26:24.154Z,118.12
2022-08-21T13:27:29.155Z,118.12
2022-08-21T13:28:24.153Z,118.12
2022-08-21T13:29:24.260Z,112.50
2022-08-21T13:30:24.100Z,112.50
2022-08-21T13:31:24.090Z,112.50
2022-08-21T13:32:24.079Z,112.50
2022-08-21T13:33:24.081Z,112.50
2022-08-21T13:34:25.098Z,129.38
2022-08-21T13:35:24.045Z,129.38
2022-08-21T13:36:24.036Z,129.38
2022-08-21T13:37:24.031Z,123.75
2022-08-21T13:38:27.264Z,123.75
2022-08-21T13:39:24.007Z,118.12
2022-08-21T13:40:29.020Z,118.12
2022-08-21T13:41:23.989Z,123.75
2022-08-21T13:42:23.990Z,129.38
2022-08-21T13:43:23.972Z,129.38
2022-08-21T13:44:23.958Z,135.00
2022-08-21T13:45:23.957Z,135.00
2022-08-21T13:46:23.929Z,135.00
2022-08-21T13:47:23.925Z,123.75
2022-08-21T13:48:23.921Z,123.75
2022-08-21T13:49:23.899Z,123.75
2022-08-21T13:50:23.890Z,118.12
2022-08-21T13:51:28.901Z,112.50
2022-08-21T13:52:23.869Z,129.38
2022-08-21T13:53:23.864Z,151.88
2022-08-21T13:54:23.841Z,163.12
2022-08-21T13:55:23.833Z,151.88
2022-08-21T13:56:23.830Z,123.75
2022-08-21T13:57:23.814Z,118.12
2022-08-21T13:58:23.807Z,112.50
2022-08-21T13:59:23.785Z,106.88
2022-08-21T14:00:23.776Z,106.88
2022-08-21T14:01:23.832Z,112.50
2022-08-21T14:02:28.791Z,123.75
2022-08-21T14:03:23.743Z,112.50
2022-08-21T14:04:23.739Z,112.50
2022-08-21T14:05:23.722Z,106.88
2022-08-21T14:06:23.714Z,106.88
2022-08-21T14:07:23.709Z,106.88
2022-08-21T14:08:30.072Z,106.88
2022-08-21T14:09:24.676Z,106.88
2022-08-21T14:10:23.676Z,106.88
2022-08-21T14:11:23.658Z,101.25
2022-08-21T14:12:24.016Z,101.25
2022-08-21T14:13:28.708Z,101.25
2022-08-21T14:14:23.624Z,101.25
2022-08-21T14:15:23.613Z,101.25
2022-08-21T14:16:23.604Z,101.25
2022-08-21T14:17:25.028Z,106.88
2022-08-21T14:18:23.595Z,106.88
2022-08-21T14:19:23.570Z,101.25
2022-08-21T14:20:23.561Z,101.25
2022-08-21T14:21:23.551Z,101.25
2022-08-21T14:22:23.538Z,101.25
2022-08-21T14:23:23.535Z,118.12
2022-08-21T14:24:28.548Z,129.38
2022-08-21T14:25:23.504Z,118.12
2022-08-21T14:26:23.513Z,106.88
2022-08-21T14:27:23.486Z,106.88
2022-08-21T14:28:23.491Z,106.88
2022-08-21T14:29:23.482Z,101.25
2022-08-21T14:30:23.457Z,101.25
2022-08-21T14:31:23.457Z,101.25
2022-08-21T14:32:25.056Z,101.25
2022-08-21T14:33:23.435Z,101.25
2022-08-21T14:34:23.410Z,101.25
2022-08-21T14:35:28.422Z,106.88
2022-08-21T14:36:23.415Z,112.50
2022-08-21T14:37:23.379Z,123.75
2022-08-21T14:38:23.377Z,135.00
2022-08-21T14:39:23.365Z,129.38
2022-08-21T14:40:23.445Z,118.12
2022-08-21T14:41:23.337Z,112.50
2022-08-21T14:42:23.322Z,106.88
2022-08-21T14:43:23.319Z,106.88
2022-08-21T14:44:23.302Z,106.88
2022-08-21T14:45:24.773Z,101.25
2022-08-21T14:46:28.304Z,101.25
2022-08-21T14:47:23.268Z,101.25
2022-08-21T14:48:23.271Z,101.25
2022-08-21T14:49:23.245Z,101.25
2022-08-21T14:50:23.236Z,101.25
2022-08-21T14:51:23.228Z,101.25
2022-08-21T14:52:23.216Z,101.25
2022-08-21T14:53:23.215Z,106.88
2022-08-21T14:54:23.287Z,118.12
2022-08-21T14:55:24.182Z,106.88
2022-08-21T14:56:23.172Z,106.88
2022-08-21T14:57:28.184Z,106.88
2022-08-21T14:58:23.158Z,95.62
2022-08-21T14:59:23.138Z,95.62
2022-08-21T15:00:23.126Z,90.00
2022-08-21T15:01:23.221Z,90.00
2022-08-21T15:02:23.108Z,90.00
2022-08-21T15:03:23.108Z,90.00
2022-08-21T15:04:23.084Z,90.00
2022-08-21T15:05:26.814Z,90.00
2022-08-21T15:06:24.066Z,90.00
2022-08-21T15:07:23.050Z,90.00
2022-08-21T15:08:28.077Z,90.00
2022-08-21T15:09:23.030Z,84.38
2022-08-21T15:10:23.019Z,90.00
2022-08-21T15:11:41.401Z,84.38
2022-08-21T15:12:23.999Z,90.00
2022-08-21T15:13:23.001Z,84.38
2022-08-21T15:14:22.978Z,84.38
2022-08-21T15:15:22.963Z,84.38
2022-08-21T15:16:22.954Z,90.00
2022-08-21T15:17:22.941Z,90.00
2022-08-21T15:18:22.934Z,90.00
2022-08-21T15:19:27.952Z,90.00
2022-08-21T15:20:22.911Z,90.00
2022-08-21T15:21:22.898Z,84.38
2022-08-21T15:22:27.696Z,84.38
2022-08-21T15:23:23.887Z,84.38
2022-08-21T15:24:22.867Z,84.38
2022-08-21T15:25:22.859Z,84.38
2022-08-21T15:26:22.846Z,78.75
2022-08-21T15:27:22.835Z,78.75
2022-08-21T15:28:22.823Z,73.12
2022-08-21T15:29:23.078Z,78.75
2022-08-21T15:30:27.825Z,78.75
2022-08-21T15:31:22.791Z,78.75
2022-08-21T15:32:22.781Z,78.75
2022-08-21T15:33:22.767Z,78.75
2022-08-21T15:34:27.121Z,78.75
2022-08-21T15:35:23.746Z,78.75
2022-08-21T15:36:22.749Z,84.38
2022-08-21T15:37:22.725Z,84.38
2022-08-21T15:38:22.717Z,84.38
2022-08-21T15:39:24.726Z,78.75
2022-08-21T15:40:22.748Z,78.75
2022-08-21T15:41:27.709Z,78.75
2022-08-21T15:42:22.674Z,78.75
2022-08-21T15:43:22.660Z,78.75
2022-08-21T15:44:23.688Z,78.75
2022-08-21T15:45:22.638Z,78.75
2022-08-21T15:46:22.628Z,78.75
2022-08-21T15:47:22.622Z,78.75
2022-08-21T15:48:22.607Z,78.75
2022-08-21T15:49:22.610Z,78.75
2022-08-21T15:50:22.583Z,73.12
2022-08-21T15:51:22.577Z,78.75
2022-08-21T15:52:27.585Z,73.12
2022-08-21T15:53:22.550Z,78.75
2022-08-21T15:54:22.554Z,73.12
2022-08-21T15:55:22.528Z,73.12
2022-08-21T15:56:22.529Z,73.12
2022-08-21T15:57:22.506Z,73.12
2022-08-21T15:58:22.497Z,78.75
2022-08-21T15:59:22.495Z,73.12
2022-08-21T16:00:22.477Z,78.75
2022-08-21T16:01:22.535Z,78.75
2022-08-21T16:02:22.457Z,73.12
2022-08-21T16:03:27.468Z,73.12
2022-08-21T16:04:22.447Z,73.12
2022-08-21T16:05:22.421Z,73.12
2022-08-21T16:06:38.550Z,73.12
2022-08-21T16:07:23.400Z,73.12
2022-08-21T16:08:22.395Z,73.12
2022-08-21T16:09:22.388Z,73.12
2022-08-21T16:10:22.369Z,67.50
2022-08-21T16:11:22.357Z,67.50
2022-08-21T16:12:22.347Z,67.50
2022-08-21T16:13:22.333Z,67.50
2022-08-21T16:14:27.358Z,67.50
2022-08-21T16:15:22.328Z,67.50
2022-08-21T16:16:22.301Z,67.50
2022-08-21T16:17:22.289Z,67.50
2022-08-21T16:18:22.286Z,67.50
2022-08-21T16:19:22.278Z,67.50
2022-08-21T16:20:22.263Z,67.50
2022-08-21T16:21:22.246Z,67.50
2022-08-21T16:22:22.239Z,67.50
2022-08-21T16:23:22.228Z,67.50
2022-08-21T16:24:22.224Z,61.88
2022-08-21T16:25:27.251Z,61.88
2022-08-21T16:26:22.193Z,61.88
2022-08-21T16:27:22.180Z,61.88
2022-08-21T16:28:23.169Z,61.88
2022-08-21T16:29:22.167Z,61.88
2022-08-21T16:30:22.151Z,61.88
2022-08-21T16:31:22.140Z,56.25
2022-08-21T16:32:22.128Z,56.25
2022-08-21T16:33:22.112Z,50.62
2022-08-21T16:34:22.113Z,56.25
2022-08-21T16:35:22.094Z,56.25
2022-08-21T16:36:27.104Z,56.25
2022-08-21T16:37:24.439Z,50.62
2022-08-21T16:38:22.060Z,50.62
2022-08-21T16:39:22.057Z,45.00